CheckWX is a tool to help pilots better visualize weather data.  It is not intended as a substitute for an official pre-flight weather briefing.

02:31:57 UTC

KSGR TAF
Sugar Land Regional Airport
Houston, Texas, USA
KSGR 092338Z 1000/1024 20008KT P6SM OVC050 FM100100 18008KT P6SM VCSH SCT025 BKN100 FM100300 VRB03KT P6SM VCSH SCT015 OVC025 FM100800 36013G23KT 5SM SHRA OVC015 FM101000 36013G23KT 4SM SHRA BR OVC010 FM101300 36017G29KT 5SM -SHRA BR BKN008 OVC012 FM102300 02016G25KT P6SM VCSH OVC015

Dec-10@
00:00 UTC

Dec-10 @ 00:00 UTC

Dec-10@
01:00 UTC

Dec-10 @ 01:00 UTC

KSGR 092338Z 1000/1024 20008KT P6SM OVC050

Expired

Wind
  • 200° at 8 KTS
Cloud Levels
  • Overcast at 5,000' AGL

Dec-10@
01:00 UTC

Dec-10 @ 01:00 UTC

Dec-10@
03:00 UTC

Dec-10 @ 03:00 UTC

FM100100 18008KT P6SM VCSH SCT025 BKN100

From

From Standard forecast or significant change

Wind
  • 180° at 8 KTS
Cloud Levels
  • Scattered at 2,500' AGL
  • Broken at 10,000' AGL

Dec-10@
03:00 UTC

Dec-10 @ 03:00 UTC

Dec-10@
08:00 UTC

Dec-10 @ 08:00 UTC

FM100300 VRB03KT P6SM VCSH SCT015 OVC025

From

From Standard forecast or significant change

Wind
  • Variable at 3 KTS
Cloud Levels
  • Scattered at 1,500' AGL
  • Overcast at 2,500' AGL

Dec-10@
08:00 UTC

Dec-10 @ 08:00 UTC

Dec-10@
10:00 UTC

Dec-10 @ 10:00 UTC

FM100800 36013G23KT 5SM SHRA OVC015

From

From Standard forecast or significant change

Wind
  • 360° at 13 KTS
  • {Gusting to 23 KTS
Conditions
Rain
Cloud Levels
  • Overcast at 1,500' AGL

Dec-10@
10:00 UTC

Dec-10 @ 10:00 UTC

Dec-10@
13:00 UTC

Dec-10 @ 13:00 UTC

FM101000 36013G23KT 4SM SHRA BR OVC010

From

From Standard forecast or significant change

Wind
  • 360° at 13 KTS
  • {Gusting to 23 KTS
Conditions
Rain, Mist
Cloud Levels
  • Overcast at 1,000' AGL

Dec-10@
13:00 UTC

Dec-10 @ 13:00 UTC

Dec-10@
23:00 UTC

Dec-10 @ 23:00 UTC

FM101300 36017G29KT 5SM -SHRA BR BKN008 OVC012

From

From Standard forecast or significant change

Wind
  • 360° at 17 KTS
  • {Gusting to 29 KTS
Conditions
Light Rain, Mist
Cloud Levels
  • Broken at 800' AGL
  • Overcast at 1,200' AGL

Dec-10@
23:00 UTC

Dec-10 @ 23:00 UTC

Dec-11@
00:00 UTC

Dec-11 @ 00:00 UTC

FM102300 02016G25KT P6SM VCSH OVC015

From

From Standard forecast or significant change

Wind
  • 020° at 16 KTS
  • {Gusting to 25 KTS
Cloud Levels
  • Overcast at 1,500' AGL